Flight Track Log - Related Links

Times and Time Zones

All times are in EDT time to prevent confusion due to time zone crossing. See the JIA4785 flight status page for this flight to view local times or setup timezone preferences in your user account.

Time Position Orientation Groundspeed Altitude Reporting Facility
EDT Latitude Longitude Course Direction KTS MPH feet Rate Location/Type
Tue 07:53:09 PM 39.9156 -84.2122 180° South 145 167 1,600  Level Indianapolis Center
Tue 07:54:07 PM 39.9511 -84.2125 360° North 167 192 3,400 2,571 Climbing Indianapolis Center
Tue 07:55:08 PM 39.9836 -84.2619 311° West 202 232 6,700 2,780 Climbing Indianapolis Center
Tue 07:56:00 PM 39.6528 -84.6289 230° Southwest  Level FlightAware Approximate
Tue 07:56:10 PM 39.9353 -84.3214 223° Southwest 233 268 9,100  Level Indianapolis Center
Tue 07:57:00 PM 39.5802 -84.7000 180° South  Level FlightAware Approximate
Tue 07:57:12 PM 39.8625 -84.3428 193° South 282 325 11,400  Level Indianapolis Center
Tue 07:58:00 PM 39.4782 -84.7000 180° South  Level FlightAware Approximate
Tue 07:58:13 PM 39.7786 -84.3061 161° South 313 360 13,500  Level Indianapolis Center
Tue 07:59:15 PM 39.6897 -84.2411 151° Southeast 355 409 14,900 1,171 Climbing Indianapolis Center
Tue 08:00:16 PM 39.5850 -84.1706 153° Southeast 404 465 15,900 1,317 Climbing Indianapolis Center
Tue 08:01:18 PM 39.4478 -84.0772 152° Southeast 456 525 17,600 1,500 Climbing Indianapolis Center
Tue 08:02:20 PM 39.3311 -83.9992 153° Southeast 470 541 19,000 1,463 Climbing Indianapolis Center
Tue 08:03:21 PM 39.2117 -83.9186 152° Southeast 481 554 20,600 1,512 Climbing Indianapolis Center
Tue 08:04:23 PM 39.0919 -83.8364 152° Southeast 488 562 22,100 1,317 Climbing Indianapolis Center
Tue 08:05:24 PM 38.9697 -83.7558 153° Southeast 491 565 23,300 1,073 Climbing Indianapolis Center
Tue 08:06:26 PM 38.8469 -83.6747 153° Southeast 493 567 24,300 1,065 Climbing Indianapolis Center
Tue 08:07:28 PM 38.6958 -83.5742 153° Southeast 508 585 25,500 1,073 Climbing Indianapolis Center
Tue 08:08:29 PM 38.5717 -83.4947 153° Southeast 510 587 26,500 1,073 Climbing Indianapolis Center
Tue 08:09:31 PM 38.4450 -83.4094 152° Southeast 512 589 27,700 1,220 Climbing Indianapolis Center
Tue 08:10:32 PM 38.3200 -83.3258 152° Southeast 507 583 29,000 634 Climbing Indianapolis Center
Tue 08:11:34 PM 38.1956 -83.2453 153° Southeast 503 579 29,000  Level Indianapolis Center
Tue 08:12:36 PM 38.0731 -83.1661 153° Southeast 495 570 29,000  Level Indianapolis Center
Tue 08:13:37 PM 37.9292 -83.0725 153° Southeast 495 570 29,000  Level Indianapolis Center
Tue 08:14:39 PM 37.8039 -82.9919 153° Southeast 498 573 29,000  Level Indianapolis Center
Tue 08:15:40 PM 37.6769 -82.9103 153° Southeast 506 582 29,000  Level Indianapolis Center
Tue 08:16:42 PM 37.5481 -82.8272 153° Southeast 510 587 29,000  Level Indianapolis Center
Tue 08:17:44 PM 37.4183 -82.7458 154° Southeast 516 594 29,000  Level Indianapolis Center
Tue 08:18:45 PM 37.2903 -82.6642 153° Southeast 515 593 29,000  Level Indianapolis Center
Tue 08:19:47 PM 37.1628 -82.5828 153° Southeast 513 590 29,000  Level Indianapolis Center
Tue 08:20:49 PM 37.0350 -82.5019 153° Southeast 511 588 29,000  Level Indianapolis Center
Tue 08:21:50 PM 36.9075 -82.4219 153° Southeast 511 588 29,000 -98 Level Indianapolis Center
Tue 08:22:52 PM 36.7808 -82.3428 153° Southeast 508 585 28,800 -1,024 Descending Indianapolis Center
Tue 08:23:53 PM 36.6383 -82.2492 152° Southeast 498 573 26,900 -1,659 Descending Indianapolis Center
Tue 08:24:55 PM 36.5192 -82.1719 152° Southeast 487 560 25,400 -1,403 Descending Indianapolis Center
Tue 08:25:57 PM 36.4006 -82.0964 153° Southeast 482 555 24,000 -1,366 Descending Indianapolis Center
Tue 08:26:58 PM 36.2850 -82.0197 152° Southeast 472 543 22,600 -1,759 Descending Indianapolis Center
Tue 08:28:10 PM 36.1444 -81.9303 153° Southeast 467 537 20,100 -2,045 Descending Atlanta Center
Tue 08:29:10 PM 36.0369 -81.8611 153° Southeast 454 522 18,100 -1,900 Descending Atlanta Center
Tue 08:30:10 PM 35.9397 -81.7997 153° Southeast 425 489 16,300 -1,700 Descending Atlanta Center
Tue 08:31:10 PM 35.8428 -81.7383 153° Southeast 402 463 14,700 -1,650 Descending Atlanta Center
Tue 08:32:10 PM 35.7456 -81.6772 153° Southeast 389 448 13,000 -1,823 Descending Atlanta Center
Tue 08:32:29 PM 35.7203 -81.6600 151° Southeast 380 437 12,300 -1,000 Descending Atlanta Center
Tue 08:33:10 PM 35.6589 -81.6233 154° Southeast 379 436 12,000 -212 Descending Atlanta Center
Tue 08:33:54 PM 35.6039 -81.5792 147° Southeast 302 348 12,000  Level Atlanta Center
Tue 08:34:10 PM 35.5869 -81.5592 136° Southeast 349 402 12,000 -90 Level Atlanta Center
Tue 08:35:01 PM 35.5436 -81.4889 127° Southeast 306 352 11,900 -623 Descending Atlanta Center
Tue 08:35:56 PM 35.4942 -81.4192 131° Southeast 307 353 10,900 -1,043 Descending Atlanta Center
Tue 08:36:10 PM 35.4792 -81.3967 129° Southeast 309 356 10,700 -885 Descending Atlanta Center
Tue 08:36:57 PM 35.4403 -81.3367 128° Southeast 308 354 10,000 -800 Descending Atlanta Center
Tue 08:37:10 PM 35.4294 -81.3242 137° Southeast 309 356 9,900  Descending Atlanta Center
Tue 08:37:58 PM 35.3842 -81.2494 127° Southeast 302 348 10,000 100 Climbing Atlanta Center
Tue 08:38:10 PM 35.3775 -81.2419 137° Southeast 309 356 10,000  Level Atlanta Center
Tue 08:39:10 PM 35.3258 -81.1672 130° Southeast 303 349 10,000 -220 Level Atlanta Center
Tue 08:39:59 PM 35.2847 -81.1053 129° Southeast 257 296 9,600 -600 Descending Atlanta Center
Tue 08:40:10 PM 35.2803 -81.0978 126° Southeast 281 323 9,400 -1,014 Descending Atlanta Center
Tue 08:41:10 PM 35.2192 -81.0719 161° South 242 278 8,400 -1,351 Descending Atlanta Center
Tue 08:42:01 PM 35.1544 -81.0692 178° South 236 272 6,900 -1,554 Descending Atlanta Center
Tue 08:43:02 PM 35.0897 -81.0614 174° South 236 272 5,500 -1,377 Descending Atlanta Center
Tue 08:44:03 PM 35.0228 -81.0561 176° South 238 274 4,100 -738 Descending Atlanta Center
Tue 08:45:04 PM 34.9558 -81.0508 176° South 237 273 4,000 -49 Descending Atlanta Center
Tue 08:46:05 PM 34.9192 -81.0017 132° Southeast 238 274 4,000  Level Atlanta Center
Tue 08:47:06 PM 34.9575 -80.9494 48° Northeast 198 228 4,000  Level Atlanta Center
Tue 08:48:19 PM 35.0097 -80.9525 357° North 148 170 4,000 -94 Level Atlanta Center
Tue 08:49:14 PM 35.0494 -80.9561 356° North 156 180 3,800 -621 Descending Atlanta Center
Tue 08:50:15 PM 35.0933 -80.9572 359° North 157 181 2,800 -885 Descending Atlanta Center
Tue 08:51:16 PM 35.1372 -80.9631 354° North 141 162 2,000 -738 Descending Atlanta Center
Tue 08:52:17 PM 35.1706 -80.9644 358° North 116 133 1,300 -689 Descending Atlanta Center
Tue 08:54:00 PM 35.2000 -80.9333 39° Northeast  Level FlightAware Approximate
Tue 09:01:00 PM 35.2137 -80.9491 39° Northeast  Level Estimated

Login

Don't have an account? Register now (free) for customized features, flight alerts, and more!